createdAt,value
2023-02-22T00:01:35.858Z,11.60
2023-02-22T00:04:05.217Z,11.60
2023-02-22T00:06:32.927Z,11.70
2023-02-22T00:09:02.302Z,11.60
2023-02-22T00:11:31.613Z,11.70
2023-02-22T00:13:58.799Z,11.60
2023-02-22T00:16:26.840Z,11.70
2023-02-22T00:18:54.043Z,11.70
2023-02-22T00:21:21.886Z,11.60
2023-02-22T00:23:49.821Z,11.60
2023-02-22T00:26:19.714Z,11.60
2023-02-22T00:28:53.621Z,11.60
2023-02-22T00:31:21.565Z,11.60
2023-02-22T00:33:49.881Z,11.60
2023-02-22T00:36:17.765Z,11.60
2023-02-22T00:38:44.697Z,11.60
2023-02-22T00:41:12.521Z,11.60
2023-02-22T00:43:39.444Z,11.60
2023-02-22T00:46:06.432Z,11.60
2023-02-22T00:48:33.354Z,11.50
2023-02-22T00:51:00.323Z,11.50
2023-02-22T00:53:27.696Z,11.60
2023-02-22T00:55:54.744Z,11.50
2023-02-22T00:58:22.449Z,11.50
2023-02-22T01:00:50.037Z,11.60
2023-02-22T01:03:20.489Z,11.60
2023-02-22T01:05:47.808Z,11.60
2023-02-22T01:08:17.033Z,11.60
2023-02-22T01:10:44.503Z,11.60
2023-02-22T01:13:13.078Z,11.60
2023-02-22T01:15:42.951Z,11.60
2023-02-22T01:18:12.603Z,11.60
2023-02-22T01:20:39.578Z,11.60
2023-02-22T01:23:08.187Z,11.60
2023-02-22T01:25:35.857Z,11.60
2023-02-22T01:28:05.274Z,11.60
2023-02-22T01:30:34.243Z,11.60
2023-02-22T01:33:02.964Z,11.60
2023-02-22T01:35:32.995Z,11.60
2023-02-22T01:37:59.976Z,11.50
2023-02-22T01:40:30.396Z,11.50
2023-02-22T01:43:00.492Z,11.50
2023-02-22T01:45:30.355Z,11.50
2023-02-22T01:48:04.539Z,11.50
2023-02-22T01:50:35.592Z,11.50
2023-02-22T01:53:03.280Z,11.50
2023-02-22T01:55:31.873Z,11.50
2023-02-22T01:57:59.031Z,11.50
2023-02-22T02:00:27.731Z,11.50
2023-02-22T02:03:27.498Z,11.50
2023-02-22T02:05:58.835Z,11.50
2023-02-22T02:09:16.104Z,11.50
2023-02-22T02:11:43.399Z,11.50
2023-02-22T02:14:11.684Z,11.50
2023-02-22T02:16:48.110Z,11.50
2023-02-22T02:19:47.954Z,11.50
2023-02-22T02:22:26.589Z,11.50
2023-02-22T02:25:24.172Z,11.50
2023-02-22T02:28:21.789Z,11.50
2023-02-22T02:31:26.370Z,11.50
2023-02-22T02:34:02.135Z,11.40
2023-02-22T02:36:33.320Z,11.40
2023-02-22T02:39:19.570Z,11.50
2023-02-22T02:41:50.818Z,11.50
2023-02-22T02:44:31.092Z,11.50
2023-02-22T02:47:11.123Z,11.50
2023-02-22T02:49:48.325Z,11.50
2023-02-22T02:52:19.086Z,11.40
2023-02-22T02:54:48.693Z,11.40
2023-02-22T02:57:15.697Z,11.50
2023-02-22T02:59:43.189Z,11.50
2023-02-22T03:02:28.628Z,11.40
2023-02-22T03:05:15.115Z,11.50
2023-02-22T03:07:53.928Z,11.50
2023-02-22T03:10:45.558Z,11.50
2023-02-22T03:13:19.446Z,11.50
2023-02-22T03:15:53.737Z,11.50
2023-02-22T03:18:39.541Z,11.40
2023-02-22T03:21:21.657Z,11.40
2023-02-22T03:23:58.713Z,11.50
2023-02-22T03:26:33.912Z,11.40
2023-02-22T03:29:05.298Z,11.40
2023-02-22T03:31:39.983Z,11.50
2023-02-22T03:34:15.732Z,11.40
2023-02-22T03:36:50.143Z,11.50
2023-02-22T03:39:20.355Z,11.40
2023-02-22T03:41:52.927Z,11.40
2023-02-22T03:44:27.531Z,11.40
2023-02-22T03:46:57.836Z,11.40
2023-02-22T03:49:42.722Z,11.40
2023-02-22T03:52:11.976Z,11.40
2023-02-22T03:54:40.963Z,11.30
2023-02-22T03:57:28.270Z,11.30
2023-02-22T04:00:08.789Z,11.30
2023-02-22T04:02:41.862Z,11.30
2023-02-22T04:05:14.269Z,11.20
2023-02-22T04:07:42.709Z,11.20
2023-02-22T04:10:12.687Z,11.20
2023-02-22T04:12:39.781Z,11.20
2023-02-22T04:15:09.417Z,11.20
2023-02-22T04:17:36.852Z,11.20
2023-02-22T04:20:06.792Z,11.20
2023-02-22T04:22:54.997Z,11.20
2023-02-22T04:25:23.856Z,11.20
2023-02-22T04:27:52.753Z,11.10
2023-02-22T04:30:25.780Z,11.10
2023-02-22T04:32:53.207Z,11.10
2023-02-22T04:35:22.834Z,11.10
2023-02-22T04:37:49.769Z,11.10
2023-02-22T04:40:18.002Z,11.10
2023-02-22T04:42:45.018Z,11.10
2023-02-22T04:45:12.558Z,11.10
2023-02-22T04:47:39.995Z,11.10
2023-02-22T04:50:08.693Z,11.10
2023-02-22T04:52:36.106Z,11.10
2023-02-22T04:55:04.820Z,11.10
2023-02-22T04:57:32.824Z,11.10
2023-02-22T04:59:59.862Z,11.00
2023-02-22T05:02:27.148Z,11.00
2023-02-22T05:04:54.165Z,11.00
2023-02-22T05:07:21.129Z,11.00
2023-02-22T05:09:48.135Z,11.00
2023-02-22T05:12:15.301Z,11.00
2023-02-22T05:14:42.218Z,11.00
2023-02-22T05:17:09.256Z,11.00
2023-02-22T05:19:36.244Z,10.90
2023-02-22T05:22:05.698Z,10.90
2023-02-22T05:24:32.708Z,10.90
2023-02-22T05:26:59.711Z,10.90
2023-02-22T05:29:26.685Z,10.90
2023-02-22T05:31:53.781Z,10.90
2023-02-22T05:34:20.825Z,10.90
2023-02-22T05:36:47.791Z,10.90
2023-02-22T05:39:14.749Z,10.90
2023-02-22T05:41:41.640Z,10.90
2023-02-22T05:44:08.638Z,10.90
2023-02-22T05:46:35.778Z,10.90
2023-02-22T05:49:02.744Z,10.90
2023-02-22T05:51:29.731Z,10.80
2023-02-22T05:53:56.939Z,10.80
2023-02-22T05:56:29.130Z,10.90
2023-02-22T05:58:57.220Z,10.80
2023-02-22T06:01:24.658Z,10.90
2023-02-22T06:03:52.085Z,10.90
2023-02-22T06:06:22.212Z,10.90
2023-02-22T06:08:49.842Z,10.90
2023-02-22T06:11:17.251Z,10.90
2023-02-22T06:13:50.477Z,10.90
2023-02-22T06:16:17.458Z,10.90
2023-02-22T06:18:44.405Z,10.90
2023-02-22T06:21:11.325Z,10.90
2023-02-22T06:23:38.339Z,11.00
2023-02-22T06:26:05.793Z,11.00
2023-02-22T06:28:32.700Z,11.00
2023-02-22T06:30:59.630Z,11.00
2023-02-22T06:33:26.542Z,11.00
2023-02-22T06:35:53.478Z,11.00
2023-02-22T06:38:25.657Z,11.00
2023-02-22T06:40:52.599Z,11.00
2023-02-22T06:43:19.507Z,11.00
2023-02-22T06:45:46.726Z,11.00
2023-02-22T06:48:14.216Z,11.10
2023-02-22T06:50:41.170Z,11.10
2023-02-22T06:53:09.282Z,11.10
2023-02-22T06:55:36.561Z,11.20
2023-02-22T06:58:05.137Z,11.20
2023-02-22T07:00:32.766Z,11.20
2023-02-22T07:03:03.864Z,11.30
2023-02-22T07:05:30.952Z,11.30
2023-02-22T07:08:05.321Z,11.30
2023-02-22T07:10:34.156Z,11.40
2023-02-22T07:13:01.629Z,11.40
2023-02-22T07:15:30.396Z,11.40
2023-02-22T07:17:57.685Z,11.40
2023-02-22T07:20:26.807Z,11.40
2023-02-22T07:22:53.847Z,11.40
2023-02-22T07:25:22.691Z,11.50
2023-02-22T07:27:49.652Z,11.40
2023-02-22T07:30:18.819Z,11.50
2023-02-22T07:32:46.844Z,11.60
2023-02-22T07:35:19.081Z,11.60
2023-02-22T07:37:46.084Z,11.70
2023-02-22T07:40:13.035Z,11.70
2023-02-22T07:43:02.353Z,11.80
2023-02-22T07:45:36.224Z,11.90
2023-02-22T07:48:05.593Z,11.90
2023-02-22T07:50:33.843Z,12.00
2023-02-22T07:53:06.871Z,12.00
2023-02-22T07:55:34.704Z,12.10
2023-02-22T07:58:04.954Z,12.10
2023-02-22T08:00:40.332Z,12.20
2023-02-22T08:03:14.730Z,12.30
2023-02-22T08:05:45.194Z,12.40
2023-02-22T08:08:14.662Z,12.50
2023-02-22T08:10:42.668Z,12.70
2023-02-22T08:13:10.449Z,12.90
2023-02-22T08:15:39.784Z,13.10
2023-02-22T08:18:09.532Z,13.50
2023-02-22T08:20:38.504Z,14.00
2023-02-22T08:23:06.694Z,14.50
2023-02-22T08:25:33.920Z,14.90
2023-02-22T08:28:04.572Z,15.30
2023-02-22T08:30:32.918Z,15.50
2023-02-22T08:33:00.039Z,15.40
2023-02-22T08:35:27.726Z,15.20
2023-02-22T08:37:58.686Z,15.20
2023-02-22T08:40:27.973Z,15.20
2023-02-22T08:42:55.234Z,15.40
2023-02-22T08:45:22.251Z,15.50
2023-02-22T08:47:49.688Z,15.50
2023-02-22T08:50:23.402Z,15.50
2023-02-22T08:52:51.328Z,15.70
2023-02-22T08:55:27.116Z,15.90
2023-02-22T08:57:54.070Z,16.10
2023-02-22T09:00:25.353Z,16.30
2023-02-22T09:02:53.087Z,16.20
2023-02-22T09:05:20.238Z,15.70
2023-02-22T09:07:47.640Z,15.30
2023-02-22T09:10:21.146Z,14.90
2023-02-22T09:12:48.103Z,14.50
2023-02-22T09:15:15.572Z,14.20
2023-02-22T09:17:42.555Z,14.00
2023-02-22T09:20:12.426Z,14.00
2023-02-22T09:22:39.779Z,13.90
2023-02-22T09:25:16.213Z,14.00
2023-02-22T09:27:44.191Z,14.10
2023-02-22T09:30:24.166Z,14.30
2023-02-22T09:32:55.742Z,14.80
2023-02-22T09:35:27.437Z,15.40
2023-02-22T09:37:59.312Z,15.90
2023-02-22T09:40:31.959Z,16.50
2023-02-22T09:43:33.737Z,17.00
2023-02-22T09:46:20.977Z,17.60
2023-02-22T09:48:59.888Z,17.90
2023-02-22T09:51:49.431Z,18.00
2023-02-22T09:54:22.780Z,17.60
2023-02-22T09:56:52.562Z,17.20
2023-02-22T09:59:30.081Z,16.80
2023-02-22T10:02:31.598Z,16.40
2023-02-22T10:05:37.871Z,16.10
2023-02-22T10:08:10.261Z,15.80
2023-02-22T10:10:39.728Z,15.30
2023-02-22T10:13:33.014Z,15.10
2023-02-22T10:16:33.822Z,15.00
2023-02-22T10:19:08.261Z,15.00
2023-02-22T10:21:58.220Z,14.90
2023-02-22T10:24:27.924Z,14.90
2023-02-22T10:26:57.917Z,15.00
2023-02-22T10:29:27.626Z,15.10
2023-02-22T10:31:59.311Z,15.20
2023-02-22T10:34:30.587Z,15.20
2023-02-22T10:37:25.635Z,15.10
2023-02-22T10:39:58.631Z,15.10
2023-02-22T10:42:27.542Z,15.20
2023-02-22T10:44:54.514Z,15.70
2023-02-22T10:47:23.078Z,16.60
2023-02-22T10:49:57.580Z,17.60
2023-02-22T10:52:34.651Z,18.00
2023-02-22T10:55:14.536Z,17.80
2023-02-22T10:57:46.253Z,17.30
2023-02-22T11:00:26.430Z,17.00
2023-02-22T11:03:02.533Z,17.00
2023-02-22T11:05:36.892Z,17.00
2023-02-22T11:08:17.181Z,16.70
2023-02-22T11:10:44.568Z,16.30
2023-02-22T11:13:18.724Z,16.00
2023-02-22T11:15:45.635Z,15.80
2023-02-22T11:18:35.619Z,15.60
2023-02-22T11:21:08.292Z,15.30
2023-02-22T11:23:37.654Z,15.00
2023-02-22T11:26:24.905Z,14.80
2023-02-22T11:28:56.340Z,14.70
2023-02-22T11:31:29.130Z,14.90
2023-02-22T11:33:59.882Z,14.90
2023-02-22T11:36:43.357Z,15.00
2023-02-22T11:39:27.660Z,15.20
2023-02-22T11:41:57.913Z,15.20
2023-02-22T11:44:30.636Z,15.20
2023-02-22T11:47:06.888Z,15.20
2023-02-22T11:49:41.552Z,15.20
2023-02-22T11:52:42.538Z,15.40
2023-02-22T11:55:42.372Z,15.50
2023-02-22T11:58:41.441Z,15.70
2023-02-22T12:01:30.246Z,15.80
2023-02-22T12:04:15.854Z,15.70
2023-02-22T12:06:52.019Z,15.60
2023-02-22T12:09:33.023Z,15.60
2023-02-22T12:12:28.134Z,15.50
2023-02-22T12:15:18.205Z,15.50
2023-02-22T12:18:18.597Z,15.50
2023-02-22T12:20:47.929Z,15.40
2023-02-22T12:23:33.587Z,15.30
2023-02-22T12:26:23.120Z,15.20
2023-02-22T12:29:01.434Z,15.20
2023-02-22T12:31:42.136Z,15.20
2023-02-22T12:34:27.350Z,15.10
2023-02-22T12:37:18.014Z,15.00
2023-02-22T12:40:08.873Z,15.00
2023-02-22T12:43:00.829Z,15.00
2023-02-22T12:45:46.460Z,15.00
2023-02-22T12:48:42.241Z,15.10
2023-02-22T12:51:14.800Z,15.30
2023-02-22T12:53:52.828Z,15.40
2023-02-22T12:56:34.086Z,15.50
2023-02-22T12:59:34.184Z,15.50
2023-02-22T13:02:22.537Z,15.50
2023-02-22T13:04:49.629Z,15.40
2023-02-22T13:07:30.571Z,15.20
2023-02-22T13:10:14.537Z,15.00
2023-02-22T13:12:57.700Z,14.90
2023-02-22T13:15:36.960Z,14.70
2023-02-22T13:18:19.088Z,14.50
2023-02-22T13:20:46.067Z,14.40
2023-02-22T13:23:25.749Z,14.30
2023-02-22T13:26:23.749Z,14.30
2023-02-22T13:29:16.473Z,14.10
2023-02-22T13:31:54.614Z,14.00
2023-02-22T13:34:40.313Z,13.90
2023-02-22T13:37:52.063Z,14.00
2023-02-22T13:40:30.954Z,13.90
2023-02-22T13:43:30.178Z,13.90
2023-02-22T13:46:29.300Z,13.90
2023-02-22T13:49:08.180Z,13.80
2023-02-22T13:51:59.040Z,13.80
2023-02-22T13:54:45.061Z,13.80
2023-02-22T13:57:25.798Z,13.80
2023-02-22T14:00:14.485Z,13.80
2023-02-22T14:03:01.025Z,13.80
2023-02-22T14:05:41.280Z,13.70
2023-02-22T14:08:28.162Z,13.70
2023-02-22T14:10:56.273Z,13.60
2023-02-22T14:13:27.774Z,13.60
2023-02-22T14:16:00.649Z,13.70
2023-02-22T14:18:31.749Z,13.70
2023-02-22T14:21:11.710Z,13.70
2023-02-22T14:23:42.934Z,13.70
2023-02-22T14:26:20.822Z,13.70
2023-02-22T14:29:02.786Z,13.70
2023-02-22T14:31:54.810Z,13.70
2023-02-22T14:34:41.862Z,13.80
2023-02-22T14:37:14.622Z,13.80
2023-02-22T14:39:46.797Z,13.70
2023-02-22T14:42:13.860Z,13.70
2023-02-22T14:44:51.423Z,13.70
2023-02-22T14:47:28.257Z,13.70
2023-02-22T14:50:03.749Z,13.70
2023-02-22T14:52:35.044Z,13.70
2023-02-22T14:55:24.357Z,13.70
2023-02-22T14:58:08.719Z,13.70
2023-02-22T15:00:45.904Z,13.70
2023-02-22T15:03:40.681Z,13.70
2023-02-22T15:06:14.905Z,13.70
2023-02-22T15:08:48.680Z,13.80
2023-02-22T15:11:31.119Z,13.80
2023-02-22T15:13:59.591Z,13.80
2023-02-22T15:16:34.205Z,13.80
2023-02-22T15:19:07.772Z,13.70
2023-02-22T15:21:35.563Z,13.60
2023-02-22T15:24:06.615Z,13.60
2023-02-22T15:26:49.038Z,13.50
2023-02-22T15:29:23.056Z,13.40
2023-02-22T15:31:50.895Z,13.30
2023-02-22T15:34:24.467Z,13.30
2023-02-22T15:36:56.261Z,13.20
2023-02-22T15:39:34.505Z,13.20
2023-02-22T15:42:20.813Z,13.20
2023-02-22T15:44:50.193Z,13.20
2023-02-22T15:47:20.241Z,13.20
2023-02-22T15:50:25.917Z,13.20
2023-02-22T15:53:04.012Z,13.20
2023-02-22T15:55:37.277Z,13.20
2023-02-22T15:58:10.881Z,13.20
2023-02-22T16:00:40.626Z,13.10
2023-02-22T16:03:13.609Z,13.10
2023-02-22T16:05:49.881Z,13.10
2023-02-22T16:08:29.343Z,13.10
2023-02-22T16:11:04.638Z,13.10
2023-02-22T16:13:35.882Z,13.20
2023-02-22T16:16:22.731Z,13.10
2023-02-22T16:18:51.536Z,13.10
2023-02-22T16:21:21.659Z,13.00
2023-02-22T16:23:51.847Z,13.00
2023-02-22T16:26:33.782Z,13.10
2023-02-22T16:29:07.567Z,13.00
2023-02-22T16:31:38.274Z,13.00
2023-02-22T16:34:08.168Z,13.00
2023-02-22T16:36:51.596Z,13.00
2023-02-22T16:39:29.938Z,13.00
2023-02-22T16:42:03.792Z,12.90
2023-02-22T16:44:31.383Z,12.90
2023-02-22T16:47:00.602Z,12.80
2023-02-22T16:49:27.801Z,12.80
2023-02-22T16:51:58.825Z,12.80
2023-02-22T16:54:34.429Z,12.70
2023-02-22T16:57:03.958Z,12.70
2023-02-22T16:59:38.639Z,12.60
2023-02-22T17:02:10.121Z,12.50
2023-02-22T17:04:37.059Z,12.50
2023-02-22T17:07:05.412Z,12.40
2023-02-22T17:09:32.958Z,12.40
2023-02-22T17:12:00.340Z,12.30
2023-02-22T17:14:33.599Z,12.30
2023-02-22T17:17:00.613Z,12.20
2023-02-22T17:19:27.543Z,12.10
2023-02-22T17:21:54.781Z,12.10
2023-02-22T17:24:24.717Z,12.00
2023-02-22T17:26:53.166Z,11.90
2023-02-22T17:29:20.678Z,11.80
2023-02-22T17:31:48.991Z,11.70
2023-02-22T17:34:16.251Z,11.60
2023-02-22T17:36:43.660Z,11.50
2023-02-22T17:39:11.030Z,11.40
2023-02-22T17:41:40.457Z,11.40
2023-02-22T17:44:07.815Z,11.30
2023-02-22T17:46:36.704Z,11.20
2023-02-22T17:49:03.726Z,11.20
2023-02-22T17:51:30.706Z,11.20
2023-02-22T17:53:57.663Z,11.10
2023-02-22T17:56:24.645Z,11.10
2023-02-22T17:58:54.366Z,11.10
2023-02-22T18:01:24.970Z,11.10
2023-02-22T18:03:53.237Z,11.10
2023-02-22T18:06:25.164Z,11.10
2023-02-22T18:08:55.528Z,11.10
2023-02-22T18:11:26.586Z,11.20
2023-02-22T18:13:58.444Z,11.20
2023-02-22T18:16:26.778Z,11.30
2023-02-22T18:18:55.155Z,11.30
2023-02-22T18:21:23.344Z,11.30
2023-02-22T18:23:50.361Z,11.30
2023-02-22T18:26:20.377Z,11.30
2023-02-22T18:28:50.833Z,11.30
2023-02-22T18:31:20.193Z,11.30
2023-02-22T18:33:50.503Z,11.30
2023-02-22T18:36:23.000Z,11.30
2023-02-22T18:38:52.526Z,11.30
2023-02-22T18:41:25.098Z,11.30
2023-02-22T18:43:54.073Z,11.40
2023-02-22T18:46:23.120Z,11.40
2023-02-22T18:48:54.600Z,11.40
2023-02-22T18:51:22.692Z,11.40
2023-02-22T18:53:50.142Z,11.30
2023-02-22T18:56:22.510Z,11.30
2023-02-22T18:58:58.712Z,11.20
2023-02-22T19:01:26.245Z,11.20
2023-02-22T19:03:53.590Z,11.20
2023-02-22T19:06:23.722Z,11.10
2023-02-22T19:08:51.181Z,11.00
2023-02-22T19:11:21.899Z,11.00
2023-02-22T19:13:51.666Z,10.90
2023-02-22T19:16:21.336Z,10.80
2023-02-22T19:18:50.095Z,10.80
2023-02-22T19:21:17.452Z,10.70
2023-02-22T19:23:48.634Z,10.70
2023-02-22T19:26:21.169Z,10.60
2023-02-22T19:28:49.073Z,10.60
2023-02-22T19:31:31.551Z,10.50
2023-02-22T19:34:09.153Z,10.60
2023-02-22T19:36:41.492Z,10.60
2023-02-22T19:39:09.743Z,10.80
2023-02-22T19:41:36.794Z,10.80
2023-02-22T19:44:05.182Z,10.90
2023-02-22T19:46:32.464Z,11.00
2023-02-22T19:49:00.790Z,11.00
2023-02-22T19:51:29.669Z,11.10
2023-02-22T19:53:59.143Z,11.10
2023-02-22T19:56:31.015Z,11.20
2023-02-22T19:59:09.236Z,11.20
2023-02-22T20:01:37.132Z,11.20
2023-02-22T20:04:06.733Z,11.20
2023-02-22T20:06:42.734Z,11.20
2023-02-22T20:09:12.992Z,11.20
2023-02-22T20:11:40.389Z,11.10
2023-02-22T20:14:07.359Z,11.10
2023-02-22T20:16:35.726Z,11.00
2023-02-22T20:19:02.845Z,10.90
2023-02-22T20:21:31.923Z,10.90
2023-02-22T20:24:03.007Z,10.80
2023-02-22T20:26:32.100Z,10.80
2023-02-22T20:28:59.382Z,10.80
2023-02-22T20:31:26.970Z,10.80
2023-02-22T20:33:55.994Z,10.80
2023-02-22T20:36:23.249Z,10.90
2023-02-22T20:38:59.146Z,11.00
2023-02-22T20:41:31.569Z,11.00
2023-02-22T20:43:59.952Z,11.00
2023-02-22T20:46:31.323Z,11.00
2023-02-22T20:49:01.285Z,11.00
2023-02-22T20:51:29.478Z,11.00
2023-02-22T20:54:00.275Z,10.90
2023-02-22T20:56:29.481Z,10.90
2023-02-22T20:59:01.939Z,10.90
2023-02-22T21:01:29.558Z,10.80
2023-02-22T21:04:01.388Z,10.60
2023-02-22T21:06:29.058Z,10.60
2023-02-22T21:08:58.437Z,10.50
2023-02-22T21:11:27.505Z,10.40
2023-02-22T21:13:54.764Z,10.30
2023-02-22T21:16:30.418Z,10.20
2023-02-22T21:19:00.835Z,10.20
2023-02-22T21:21:29.193Z,10.20
2023-02-22T21:24:01.748Z,10.10
2023-02-22T21:26:31.944Z,10.00
2023-02-22T21:29:04.739Z,10.00
2023-02-22T21:31:33.081Z,9.80
2023-02-22T21:34:01.165Z,9.80
2023-02-22T21:36:28.877Z,9.70
2023-02-22T21:39:02.046Z,9.70
2023-02-22T21:41:30.982Z,9.60
2023-02-22T21:43:59.282Z,9.50
2023-02-22T21:46:29.224Z,9.50
2023-02-22T21:48:58.619Z,9.40
2023-02-22T21:51:32.090Z,9.30
2023-02-22T21:54:01.477Z,9.30
2023-02-22T21:56:30.151Z,9.30
2023-02-22T21:59:03.501Z,9.20
2023-02-22T22:01:36.582Z,9.20
2023-02-22T22:04:04.899Z,9.20
2023-02-22T22:06:34.408Z,9.20
2023-02-22T22:09:04.993Z,9.20
2023-02-22T22:11:32.906Z,9.30
2023-02-22T22:14:00.485Z,9.30
2023-02-22T22:16:29.701Z,9.30
2023-02-22T22:18:57.291Z,9.40
2023-02-22T22:21:26.230Z,9.40
2023-02-22T22:23:57.507Z,9.50
2023-02-22T22:26:26.062Z,9.60
2023-02-22T22:28:59.209Z,9.70
2023-02-22T22:31:27.660Z,9.70
2023-02-22T22:33:56.359Z,9.70
2023-02-22T22:36:25.171Z,9.70
2023-02-22T22:38:52.886Z,9.80
2023-02-22T22:41:22.023Z,9.90
2023-02-22T22:43:49.016Z,9.90
2023-02-22T22:46:17.528Z,10.00
2023-02-22T22:48:49.254Z,10.00
2023-02-22T22:51:20.446Z,10.00
2023-02-22T22:53:49.829Z,10.10
2023-02-22T22:56:29.306Z,10.10
2023-02-22T22:58:58.789Z,10.10
2023-02-22T23:01:33.023Z,10.20
2023-02-22T23:04:02.481Z,10.20
2023-02-22T23:06:33.128Z,10.20
2023-02-22T23:09:01.849Z,10.20
2023-02-22T23:11:33.667Z,10.20
2023-02-22T23:14:03.642Z,10.20
2023-02-22T23:16:32.307Z,10.20
2023-02-22T23:18:59.317Z,10.20
2023-02-22T23:21:26.277Z,10.20
2023-02-22T23:23:58.627Z,10.10
2023-02-22T23:26:26.879Z,10.20
2023-02-22T23:28:59.187Z,10.20
2023-02-22T23:31:29.396Z,10.20
2023-02-22T23:33:58.974Z,10.30
2023-02-22T23:36:26.653Z,10.30
2023-02-22T23:38:54.261Z,10.40
2023-02-22T23:41:25.043Z,10.40
2023-02-22T23:43:52.018Z,10.40
2023-02-22T23:46:19.279Z,10.40
2023-02-22T23:48:54.628Z,10.40
2023-02-22T23:51:25.614Z,10.40
2023-02-22T23:53:55.830Z,10.40
2023-02-22T23:56:26.534Z,10.40
2023-02-22T23:58:57.461Z,10.40
